Time;durP1;ratioP1;P1;durP2;ratioP2;P2;SDS_P1;SDS_P2;PMS_P1;PMS_P2;Temp;Humidity;BMP_temperature;BMP_pressure;BME280_temperature;BME280_humidity;BME280_pressure;Samples;Min_cycle;Max_cycle;Signal;HPM_P1;HPM_P2
2022/12/06 00:02:24;;;;;;;;;29.25;27.75;;;;;;;;6487304;31;9667;-61
2022/12/06 00:08:26;;;;;;;;;34.00;33.00;;;;;;;;6486800;46;8885;-60
2022/12/06 00:14:30;;;;;;;;;36.25;29.25;;;;;;;;6487295;39;8912;-62
2022/12/06 00:20:32;;;;;;;;;35.00;26.25;;;;;;;;6488827;36;9006;-61
2022/12/06 00:26:36;;;;;;;;;26.25;25.75;;;;;;;;6487443;31;8877;-62
2022/12/06 00:32:40;;;;;;;;;29.50;26.50;;;;;;;;6487509;39;8873;-62
2022/12/06 00:38:43;;;;;;;;;31.00;31.00;;;;;;;;6486584;31;9089;-61
2022/12/06 00:44:45;;;;;;;;;30.00;27.25;;;;;;;;6486591;39;8900;-61
2022/12/06 00:50:50;;;;;;;;;30.75;29.25;;;;;;;;6487201;39;8899;-61
2022/12/06 00:56:52;;;;;;;;;27.75;26.00;;;;;;;;6487144;39;9120;-62
2022/12/06 01:02:56;;;;;;;;;29.75;26.25;;;;;;;;6486955;31;9040;-62
2022/12/06 01:09:02;;;;;;;;;25.50;24.00;;;;;;;;6486971;31;9510;-62
2022/12/06 01:15:05;;;;;;;;;29.50;26.00;;;;;;;;6487693;39;8907;-61
2022/12/06 01:21:15;;;;;;;;;33.00;27.25;;;;;;;;6486109;31;8945;-62
2022/12/06 01:27:18;;;;;;;;;29.00;26.50;;;;;;;;6487274;39;8897;-62
2022/12/06 01:33:20;;;;;;;;;29.00;23.50;;;;;;;;6486863;39;8913;-62
2022/12/06 01:39:22;;;;;;;;;23.00;22.00;;;;;;;;6486320;39;8920;-62
2022/12/06 01:45:26;;;;;;;;;26.75;23.00;;;;;;;;6487614;31;8849;-61
2022/12/06 01:51:30;;;;;;;;;20.00;19.50;;;;;;;;6486206;31;8870;-60
2022/12/06 01:57:33;;;;;;;;;23.50;20.75;;;;;;;;6487570;31;9027;-62
2022/12/06 02:03:37;;;;;;;;;23.00;17.75;;;;;;;;6486288;39;8845;-63
2022/12/06 02:09:42;;;;;;;;;19.75;19.75;;;;;;;;6486671;31;9016;-60
2022/12/06 02:16:12;;;;;;;;;20.50;14.75;;;;;;;;6485437;39;8900;-62
2022/12/06 02:22:53;;;;;;;;;16.25;14.00;;;;;;;;6485024;31;9944;-61
2022/12/06 02:28:59;;;;;;;;;11.25;11.25;;;;;;;;6485439;31;8976;-61
2022/12/06 02:35:14;;;;;;;;;4.50;4.00;;;;;;;;6485693;31;8877;-62
2022/12/06 02:41:37;;;;;;;;;9.00;9.00;;;;;;;;6486883;39;9331;-61
2022/12/06 02:47:41;;;;;;;;;10.00;10.00;;;;;;;;6488235;39;9543;-61
2022/12/06 02:53:48;;;;;;;;;10.75;8.50;;;;;;;;6488925;39;8856;-61
2022/12/06 02:59:53;;;;;;;;;15.75;12.00;;;;;;;;6488360;31;8949;-61
2022/12/06 03:06:01;;;;;;;;;12.50;10.75;;;;;;;;6488988;31;9413;-60
2022/12/06 03:12:07;;;;;;;;;5.00;4.75;;;;;;;;6488909;31;9000;-61
2022/12/06 03:18:18;;;;;;;;;11.50;11.50;;;;;;;;6487150;46;8901;-61
2022/12/06 03:24:22;;;;;;;;;13.50;10.50;;;;;;;;6488545;39;8955;-60
2022/12/06 03:30:29;;;;;;;;;10.00;7.67;;;;;;;;6487344;39;9568;-60
2022/12/06 03:36:31;;;;;;;;;10.00;8.00;;;;;;;;6487863;39;8861;-61
2022/12/06 03:42:35;;;;;;;;;6.00;6.00;;;;;;;;6488382;39;8881;-61
2022/12/06 03:49:14;;;;;;;;;12.75;10.75;;;;;;;;6487242;39;8885;-61
2022/12/06 03:55:16;;;;;;;;;12.00;12.00;;;;;;;;6486642;31;8919;-60
2022/12/06 04:01:18;;;;;;;;;13.00;11.75;;;;;;;;6486866;46;8960;-61
2022/12/06 04:07:21;;;;;;;;;18.50;13.50;;;;;;;;6487608;39;8864;-61
2022/12/06 04:13:24;;;;;;;;;14.00;14.00;;;;;;;;6486993;39;8933;-61
2022/12/06 04:19:26;;;;;;;;;24.50;18.50;;;;;;;;6486697;46;9101;-60
2022/12/06 04:25:33;;;;;;;;;14.00;14.00;;;;;;;;6486902;31;8877;-61
2022/12/06 04:44:21;;;;;;;;;23.50;19.25;;;;;;;;6485958;46;8881;-62
2022/12/06 04:50:24;;;;;;;;;19.00;14.00;;;;;;;;6487800;39;8857;-61
2022/12/06 04:56:27;;;;;;;;;17.50;17.50;;;;;;;;6486923;31;8873;-60
2022/12/06 05:02:29;;;;;;;;;20.50;19.25;;;;;;;;6471312;39;9029;-65
2022/12/06 05:08:32;;;;;;;;;16.25;14.50;;;;;;;;6491424;31;8880;-66
2022/12/06 05:14:35;;;;;;;;;23.00;16.50;;;;;;;;6492164;39;8954;-64
2022/12/06 05:20:37;;;;;;;;;24.00;20.50;;;;;;;;6491550;39;9063;-64
2022/12/06 05:26:39;;;;;;;;;20.00;20.00;;;;;;;;6491565;39;8933;-65
2022/12/06 05:32:41;;;;;;;;;17.00;16.50;;;;;;;;6488936;39;8906;-64
2022/12/06 05:38:44;;;;;;;;;24.25;19.00;;;;;;;;6489936;39;8942;-65
2022/12/06 05:44:52;;;;;;;;;27.25;22.25;;;;;;;;6490204;39;9052;-65
2022/12/06 05:50:54;;;;;;;;;30.25;26.75;;;;;;;;6491864;39;8926;-65
2022/12/06 05:56:56;;;;;;;;;28.50;20.75;;;;;;;;6490980;39;8907;-65
2022/12/06 06:02:58;;;;;;;;;21.50;20.50;;;;;;;;6491379;39;8976;-65
2022/12/06 06:09:01;;;;;;;;;23.50;20.75;;;;;;;;6490601;39;8882;-66
2022/12/06 06:15:06;;;;;;;;;31.25;24.00;;;;;;;;6490901;46;8954;-66
2022/12/06 06:21:09;;;;;;;;;31.00;25.00;;;;;;;;6492915;31;8952;-65
2022/12/06 06:27:11;;;;;;;;;24.25;20.75;;;;;;;;6492985;31;8861;-65
2022/12/06 06:33:13;;;;;;;;;28.00;26.25;;;;;;;;6493294;31;8834;-66
2022/12/06 06:39:17;;;;;;;;;25.25;23.50;;;;;;;;6493034;31;8940;-66
2022/12/06 06:45:19;;;;;;;;;30.00;21.50;;;;;;;;6491555;46;8842;-66
2022/12/06 06:51:30;;;;;;;;;29.00;26.25;;;;;;;;6493179;39;8889;-65
2022/12/06 06:57:34;;;;;;;;;25.67;22.33;;;;;;;;6491720;39;8932;-65
2022/12/06 07:03:38;;;;;;;;;26.50;24.75;;;;;;;;6493326;31;9663;-65
2022/12/06 07:09:41;;;;;;;;;22.25;22.25;;;;;;;;6491574;31;8972;-64
2022/12/06 07:15:43;;;;;;;;;28.75;26.00;;;;;;;;6491501;39;8927;-65
2022/12/06 07:21:45;;;;;;;;;27.50;20.25;;;;;;;;6492162;39;8893;-65
2022/12/06 07:27:48;;;;;;;;;29.25;24.75;;;;;;;;6491527;39;8958;-65
2022/12/06 07:33:54;;;;;;;;;28.00;24.50;;;;;;;;6493427;39;8878;-68
2022/12/06 07:39:58;;;;;;;;;25.00;22.25;;;;;;;;6491610;39;8962;-65
2022/12/06 07:46:02;;;;;;;;;29.00;27.50;;;;;;;;6489120;39;8989;-63
2022/12/06 07:52:05;;;;;;;;;35.75;30.75;;;;;;;;6490468;39;8931;-65
2022/12/06 07:58:09;;;;;;;;;44.50;37.00;;;;;;;;6488027;39;8914;-65
2022/12/06 08:04:13;;;;;;;;;35.50;29.50;;;;;;;;6488845;39;8962;-65
2022/12/06 08:10:15;;;;;;;;;40.75;30.25;;;;;;;;6489678;39;8927;-65
2022/12/06 08:16:18;;;;;;;;;33.25;31.00;;;;;;;;6488609;46;8945;-65
2022/12/06 08:22:20;;;;;;;;;41.25;37.50;;;;;;;;6489029;31;8939;-66
2022/12/06 08:28:22;;;;;;;;;39.75;35.00;;;;;;;;6489040;31;8977;-66
2022/12/06 08:34:24;;;;;;;;;40.50;36.00;;;;;;;;6486762;39;8899;-66
2022/12/06 08:40:27;;;;;;;;;41.75;35.25;;;;;;;;6487771;39;8994;-65
2022/12/06 08:46:30;;;;;;;;;42.00;40.25;;;;;;;;6488964;39;8907;-68
2022/12/06 08:52:32;;;;;;;;;38.25;36.25;;;;;;;;6488580;39;9530;-64
2022/12/06 08:58:35;;;;;;;;;52.75;43.50;;;;;;;;6488430;39;9501;-64
2022/12/06 09:04:40;;;;;;;;;60.00;46.25;;;;;;;;6489271;39;8962;-65
2022/12/06 09:10:43;;;;;;;;;56.25;45.50;;;;;;;;6487714;39;8900;-64
2022/12/06 09:16:45;;;;;;;;;54.00;45.75;;;;;;;;6488681;31;8981;-65
